sensor_id;sensor_type;location;lat;lon;timestamp;P1;durP1;ratioP1;P2;durP2;ratioP2
17173;SDS011;8702;48.130;-1.696;2022-11-20T00:01:05;10.18;;;5.35;;
17173;SDS011;8702;48.130;-1.696;2022-11-20T00:03:32;7.57;;;4.55;;
17173;SDS011;8702;48.130;-1.696;2022-11-20T00:06:00;9.68;;;4.93;;
17173;SDS011;8702;48.130;-1.696;2022-11-20T00:08:27;8.52;;;4.82;;
17173;SDS011;8702;48.130;-1.696;2022-11-20T00:10:53;6.97;;;4.68;;
17173;SDS011;8702;48.130;-1.696;2022-11-20T00:13:20;11.02;;;4.78;;
17173;SDS011;8702;48.130;-1.696;2022-11-20T00:15:50;9.27;;;4.72;;
17173;SDS011;8702;48.130;-1.696;2022-11-20T00:18:23;7.95;;;4.40;;
17173;SDS011;8702;48.130;-1.696;2022-11-20T00:20:50;8.05;;;4.85;;
17173;SDS011;8702;48.130;-1.696;2022-11-20T00:23:17;8.68;;;4.32;;
17173;SDS011;8702;48.130;-1.696;2022-11-20T00:25:44;11.73;;;4.80;;
17173;SDS011;8702;48.130;-1.696;2022-11-20T00:28:11;8.87;;;4.70;;
17173;SDS011;8702;48.130;-1.696;2022-11-20T00:30:38;7.47;;;4.22;;
17173;SDS011;8702;48.130;-1.696;2022-11-20T00:33:07;7.13;;;4.15;;
17173;SDS011;8702;48.130;-1.696;2022-11-20T00:35:33;9.13;;;4.10;;
17173;SDS011;8702;48.130;-1.696;2022-11-20T00:38:00;7.13;;;4.30;;
17173;SDS011;8702;48.130;-1.696;2022-11-20T00:40:27;7.80;;;3.95;;
17173;SDS011;8702;48.130;-1.696;2022-11-20T00:42:54;7.28;;;4.15;;
17173;SDS011;8702;48.130;-1.696;2022-11-20T00:45:21;6.35;;;3.50;;
17173;SDS011;8702;48.130;-1.696;2022-11-20T00:47:48;6.47;;;3.97;;
17173;SDS011;8702;48.130;-1.696;2022-11-20T00:50:16;7.13;;;4.15;;
17173;SDS011;8702;48.130;-1.696;2022-11-20T00:52:43;7.57;;;4.07;;
17173;SDS011;8702;48.130;-1.696;2022-11-20T00:55:10;7.90;;;4.20;;
17173;SDS011;8702;48.130;-1.696;2022-11-20T00:57:37;9.27;;;4.03;;
17173;SDS011;8702;48.130;-1.696;2022-11-20T01:00:05;7.43;;;3.90;;
17173;SDS011;8702;48.130;-1.696;2022-11-20T01:02:34;7.13;;;3.80;;
17173;SDS011;8702;48.130;-1.696;2022-11-20T01:05:01;7.35;;;4.18;;
17173;SDS011;8702;48.130;-1.696;2022-11-20T01:07:30;6.50;;;4.00;;
17173;SDS011;8702;48.130;-1.696;2022-11-20T01:09:58;6.60;;;3.88;;
17173;SDS011;8702;48.130;-1.696;2022-11-20T01:12:25;9.68;;;4.00;;
17173;SDS011;8702;48.130;-1.696;2022-11-20T01:14:52;5.38;;;3.60;;
17173;SDS011;8702;48.130;-1.696;2022-11-20T01:17:19;6.35;;;3.80;;
17173;SDS011;8702;48.130;-1.696;2022-11-20T01:19:48;7.20;;;4.15;;
17173;SDS011;8702;48.130;-1.696;2022-11-20T01:22:17;7.97;;;4.13;;
17173;SDS011;8702;48.130;-1.696;2022-11-20T01:24:45;7.05;;;3.40;;
17173;SDS011;8702;48.130;-1.696;2022-11-20T01:27:12;6.95;;;3.92;;
17173;SDS011;8702;48.130;-1.696;2022-11-20T01:29:39;7.15;;;3.65;;
17173;SDS011;8702;48.130;-1.696;2022-11-20T01:32:06;10.23;;;3.65;;
17173;SDS011;8702;48.130;-1.696;2022-11-20T01:34:33;7.68;;;3.90;;
17173;SDS011;8702;48.130;-1.696;2022-11-20T01:37:00;7.35;;;3.53;;
17173;SDS011;8702;48.130;-1.696;2022-11-20T01:39:27;7.43;;;3.88;;
17173;SDS011;8702;48.130;-1.696;2022-11-20T01:41:56;7.03;;;3.60;;
17173;SDS011;8702;48.130;-1.696;2022-11-20T01:44:45;6.82;;;3.42;;
17173;SDS011;8702;48.130;-1.696;2022-11-20T01:47:16;6.88;;;3.42;;
17173;SDS011;8702;48.130;-1.696;2022-11-20T01:49:48;8.10;;;3.60;;
17173;SDS011;8702;48.130;-1.696;2022-11-20T01:52:19;7.32;;;3.55;;
17173;SDS011;8702;48.130;-1.696;2022-11-20T01:54:48;8.27;;;3.60;;
17173;SDS011;8702;48.130;-1.696;2022-11-20T01:57:21;6.00;;;3.50;;
17173;SDS011;8702;48.130;-1.696;2022-11-20T01:59:51;5.53;;;2.90;;
17173;SDS011;8702;48.130;-1.696;2022-11-20T02:02:23;5.10;;;3.03;;
17173;SDS011;8702;48.130;-1.696;2022-11-20T02:04:51;8.27;;;2.90;;
17173;SDS011;8702;48.130;-1.696;2022-11-20T02:07:20;8.73;;;3.08;;
17173;SDS011;8702;48.130;-1.696;2022-11-20T02:09:48;7.53;;;2.90;;
17173;SDS011;8702;48.130;-1.696;2022-11-20T02:12:16;6.83;;;3.27;;
17173;SDS011;8702;48.130;-1.696;2022-11-20T02:15:05;7.72;;;3.28;;
17173;SDS011;8702;48.130;-1.696;2022-11-20T02:17:33;6.95;;;2.95;;
17173;SDS011;8702;48.130;-1.696;2022-11-20T02:20:00;5.67;;;2.80;;
17173;SDS011;8702;48.130;-1.696;2022-11-20T02:22:28;6.55;;;2.90;;
17173;SDS011;8702;48.130;-1.696;2022-11-20T02:24:58;8.37;;;3.00;;
17173;SDS011;8702;48.130;-1.696;2022-11-20T02:27:26;6.53;;;3.03;;
17173;SDS011;8702;48.130;-1.696;2022-11-20T02:29:55;6.88;;;2.83;;
17173;SDS011;8702;48.130;-1.696;2022-11-20T02:32:26;5.25;;;2.60;;
17173;SDS011;8702;48.130;-1.696;2022-11-20T02:34:55;7.93;;;3.17;;
17173;SDS011;8702;48.130;-1.696;2022-11-20T02:37:32;5.32;;;2.83;;
17173;SDS011;8702;48.130;-1.696;2022-11-20T02:40:03;4.37;;;2.63;;
17173;SDS011;8702;48.130;-1.696;2022-11-20T02:42:31;7.05;;;2.67;;
17173;SDS011;8702;48.130;-1.696;2022-11-20T02:44:58;6.05;;;2.60;;
17173;SDS011;8702;48.130;-1.696;2022-11-20T02:47:25;7.45;;;2.63;;
17173;SDS011;8702;48.130;-1.696;2022-11-20T02:49:52;6.57;;;2.43;;
17173;SDS011;8702;48.130;-1.696;2022-11-20T02:52:18;7.43;;;2.70;;
17173;SDS011;8702;48.130;-1.696;2022-11-20T02:54:45;5.18;;;2.50;;
17173;SDS011;8702;48.130;-1.696;2022-11-20T02:57:14;4.10;;;2.42;;
17173;SDS011;8702;48.130;-1.696;2022-11-20T02:59:41;5.80;;;2.20;;
17173;SDS011;8702;48.130;-1.696;2022-11-20T03:02:08;5.97;;;2.40;;
17173;SDS011;8702;48.130;-1.696;2022-11-20T03:04:35;5.63;;;1.95;;
17173;SDS011;8702;48.130;-1.696;2022-11-20T03:07:02;6.07;;;2.53;;
17173;SDS011;8702;48.130;-1.696;2022-11-20T03:09:30;5.63;;;2.30;;
17173;SDS011;8702;48.130;-1.696;2022-11-20T03:11:57;7.25;;;2.70;;
17173;SDS011;8702;48.130;-1.696;2022-11-20T03:14:25;7.25;;;2.70;;
17173;SDS011;8702;48.130;-1.696;2022-11-20T03:16:52;7.13;;;2.60;;
17173;SDS011;8702;48.130;-1.696;2022-11-20T03:19:19;7.20;;;2.50;;
17173;SDS011;8702;48.130;-1.696;2022-11-20T03:21:46;4.95;;;2.70;;
17173;SDS011;8702;48.130;-1.696;2022-11-20T03:24:13;4.40;;;2.70;;
17173;SDS011;8702;48.130;-1.696;2022-11-20T03:26:40;4.78;;;2.70;;
17173;SDS011;8702;48.130;-1.696;2022-11-20T03:29:08;6.10;;;2.65;;
17173;SDS011;8702;48.130;-1.696;2022-11-20T03:31:36;6.85;;;2.85;;
17173;SDS011;8702;48.130;-1.696;2022-11-20T03:34:06;4.40;;;2.40;;
17173;SDS011;8702;48.130;-1.696;2022-11-20T03:36:33;6.70;;;2.50;;
17173;SDS011;8702;48.130;-1.696;2022-11-20T03:39:00;8.65;;;2.90;;
17173;SDS011;8702;48.130;-1.696;2022-11-20T03:41:28;8.50;;;2.47;;
17173;SDS011;8702;48.130;-1.696;2022-11-20T03:43:56;5.65;;;2.58;;
17173;SDS011;8702;48.130;-1.696;2022-11-20T03:46:25;6.13;;;2.78;;
17173;SDS011;8702;48.130;-1.696;2022-11-20T03:48:55;6.07;;;2.88;;
17173;SDS011;8702;48.130;-1.696;2022-11-20T03:51:23;7.00;;;3.03;;
17173;SDS011;8702;48.130;-1.696;2022-11-20T03:53:52;3.97;;;2.20;;
17173;SDS011;8702;48.130;-1.696;2022-11-20T03:56:22;8.93;;;2.60;;
17173;SDS011;8702;48.130;-1.696;2022-11-20T03:58:50;5.72;;;2.58;;
17173;SDS011;8702;48.130;-1.696;2022-11-20T04:01:19;5.75;;;2.33;;
17173;SDS011;8702;48.130;-1.696;2022-11-20T04:03:47;5.20;;;2.40;;
17173;SDS011;8702;48.130;-1.696;2022-11-20T04:06:16;5.20;;;2.40;;
17173;SDS011;8702;48.130;-1.696;2022-11-20T04:08:45;4.68;;;2.35;;
17173;SDS011;8702;48.130;-1.696;2022-11-20T04:11:13;4.72;;;2.30;;
17173;SDS011;8702;48.130;-1.696;2022-11-20T04:13:42;5.53;;;2.63;;
17173;SDS011;8702;48.130;-1.696;2022-11-20T04:16:13;7.03;;;2.53;;
17173;SDS011;8702;48.130;-1.696;2022-11-20T04:18:40;6.00;;;2.72;;
17173;SDS011;8702;48.130;-1.696;2022-11-20T04:21:08;6.75;;;2.78;;
17173;SDS011;8702;48.130;-1.696;2022-11-20T04:23:36;5.35;;;2.67;;
17173;SDS011;8702;48.130;-1.696;2022-11-20T04:26:04;5.32;;;2.60;;
17173;SDS011;8702;48.130;-1.696;2022-11-20T04:28:32;5.70;;;2.67;;
17173;SDS011;8702;48.130;-1.696;2022-11-20T04:31:03;7.03;;;2.77;;
17173;SDS011;8702;48.130;-1.696;2022-11-20T04:33:30;5.40;;;2.60;;
17173;SDS011;8702;48.130;-1.696;2022-11-20T04:35:59;6.13;;;2.67;;
17173;SDS011;8702;48.130;-1.696;2022-11-20T04:38:27;5.28;;;2.75;;
17173;SDS011;8702;48.130;-1.696;2022-11-20T04:40:59;4.63;;;2.58;;
17173;SDS011;8702;48.130;-1.696;2022-11-20T04:43:28;4.10;;;2.60;;
17173;SDS011;8702;48.130;-1.696;2022-11-20T04:45:55;4.55;;;2.78;;
17173;SDS011;8702;48.130;-1.696;2022-11-20T04:48:23;5.72;;;2.63;;
17173;SDS011;8702;48.130;-1.696;2022-11-20T04:50:51;5.38;;;2.50;;
17173;SDS011;8702;48.130;-1.696;2022-11-20T04:53:24;5.40;;;2.50;;
17173;SDS011;8702;48.130;-1.696;2022-11-20T04:55:51;5.60;;;2.78;;
17173;SDS011;8702;48.130;-1.696;2022-11-20T04:58:20;5.53;;;2.83;;
17173;SDS011;8702;48.130;-1.696;2022-11-20T05:00:49;4.88;;;2.60;;
17173;SDS011;8702;48.130;-1.696;2022-11-20T05:03:17;3.88;;;2.40;;
17173;SDS011;8702;48.130;-1.696;2022-11-20T05:05:45;4.10;;;2.53;;
17173;SDS011;8702;48.130;-1.696;2022-11-20T05:08:12;4.35;;;2.72;;
17173;SDS011;8702;48.130;-1.696;2022-11-20T05:10:39;4.57;;;2.70;;
17173;SDS011;8702;48.130;-1.696;2022-11-20T05:13:06;5.18;;;2.65;;
17173;SDS011;8702;48.130;-1.696;2022-11-20T05:15:35;5.13;;;2.33;;
17173;SDS011;8702;48.130;-1.696;2022-11-20T05:18:02;5.00;;;2.53;;
17173;SDS011;8702;48.130;-1.696;2022-11-20T05:20:29;5.47;;;2.70;;
17173;SDS011;8702;48.130;-1.696;2022-11-20T05:22:56;5.22;;;2.60;;
17173;SDS011;8702;48.130;-1.696;2022-11-20T05:25:23;7.22;;;3.08;;
17173;SDS011;8702;48.130;-1.696;2022-11-20T05:27:50;4.68;;;2.95;;
17173;SDS011;8702;48.130;-1.696;2022-11-20T05:30:17;6.43;;;3.03;;
17173;SDS011;8702;48.130;-1.696;2022-11-20T05:32:46;6.70;;;3.25;;
17173;SDS011;8702;48.130;-1.696;2022-11-20T05:35:13;7.88;;;3.10;;
17173;SDS011;8702;48.130;-1.696;2022-11-20T05:37:40;6.10;;;3.20;;
17173;SDS011;8702;48.130;-1.696;2022-11-20T05:40:07;8.07;;;3.28;;
17173;SDS011;8702;48.130;-1.696;2022-11-20T05:42:34;5.72;;;3.17;;
17173;SDS011;8702;48.130;-1.696;2022-11-20T05:45:05;5.78;;;2.95;;
17173;SDS011;8702;48.130;-1.696;2022-11-20T05:47:36;6.57;;;3.17;;
17173;SDS011;8702;48.130;-1.696;2022-11-20T05:50:07;6.88;;;3.15;;
17173;SDS011;8702;48.130;-1.696;2022-11-20T05:52:37;5.60;;;2.80;;
17173;SDS011;8702;48.130;-1.696;2022-11-20T05:55:04;6.43;;;3.20;;
17173;SDS011;8702;48.130;-1.696;2022-11-20T05:57:32;5.82;;;2.88;;
17173;SDS011;8702;48.130;-1.696;2022-11-20T05:59:59;5.35;;;2.88;;
17173;SDS011;8702;48.130;-1.696;2022-11-20T06:02:26;4.70;;;3.10;;
17173;SDS011;8702;48.130;-1.696;2022-11-20T06:04:53;4.80;;;2.80;;
17173;SDS011;8702;48.130;-1.696;2022-11-20T06:07:22;3.85;;;2.60;;
17173;SDS011;8702;48.130;-1.696;2022-11-20T06:09:49;2.63;;;1.80;;
17173;SDS011;8702;48.130;-1.696;2022-11-20T06:12:18;2.00;;;1.80;;
17173;SDS011;8702;48.130;-1.696;2022-11-20T06:14:45;2.67;;;1.80;;
17173;SDS011;8702;48.130;-1.696;2022-11-20T06:17:13;2.30;;;1.60;;
17173;SDS011;8702;48.130;-1.696;2022-11-20T06:19:40;1.40;;;1.30;;
17173;SDS011;8702;48.130;-1.696;2022-11-20T06:22:07;1.55;;;1.45;;
17173;SDS011;8702;48.130;-1.696;2022-11-20T06:24:35;1.45;;;1.35;;
17173;SDS011;8702;48.130;-1.696;2022-11-20T06:27:02;1.73;;;1.50;;
17173;SDS011;8702;48.130;-1.696;2022-11-20T06:29:29;1.42;;;1.33;;
17173;SDS011;8702;48.130;-1.696;2022-11-20T06:31:56;1.63;;;1.30;;
17173;SDS011;8702;48.130;-1.696;2022-11-20T06:34:23;1.63;;;1.43;;
17173;SDS011;8702;48.130;-1.696;2022-11-20T06:36:50;1.35;;;1.25;;
17173;SDS011;8702;48.130;-1.696;2022-11-20T06:39:18;1.42;;;1.33;;
17173;SDS011;8702;48.130;-1.696;2022-11-20T06:41:49;1.52;;;1.40;;
17173;SDS011;8702;48.130;-1.696;2022-11-20T06:44:16;1.77;;;1.40;;
17173;SDS011;8702;48.130;-1.696;2022-11-20T06:46:43;1.30;;;1.20;;
17173;SDS011;8702;48.130;-1.696;2022-11-20T06:49:09;1.52;;;1.40;;
17173;SDS011;8702;48.130;-1.696;2022-11-20T06:51:36;1.50;;;1.40;;
17173;SDS011;8702;48.130;-1.696;2022-11-20T06:54:04;1.87;;;1.20;;
17173;SDS011;8702;48.130;-1.696;2022-11-20T06:56:31;1.70;;;1.60;;
17173;SDS011;8702;48.130;-1.696;2022-11-20T06:58:59;3.10;;;1.75;;
17173;SDS011;8702;48.130;-1.696;2022-11-20T07:01:30;1.40;;;1.30;;
17173;SDS011;8702;48.130;-1.696;2022-11-20T07:03:57;1.50;;;1.40;;
17173;SDS011;8702;48.130;-1.696;2022-11-20T07:06:24;1.80;;;1.35;;
17173;SDS011;8702;48.130;-1.696;2022-11-20T07:08:51;1.42;;;1.33;;
17173;SDS011;8702;48.130;-1.696;2022-11-20T07:11:18;1.70;;;1.40;;
17173;SDS011;8702;48.130;-1.696;2022-11-20T07:13:45;1.48;;;1.38;;
17173;SDS011;8702;48.130;-1.696;2022-11-20T07:16:13;2.25;;;1.40;;
17173;SDS011;8702;48.130;-1.696;2022-11-20T07:18:40;1.50;;;1.40;;
17173;SDS011;8702;48.130;-1.696;2022-11-20T07:21:08;1.70;;;1.50;;
17173;SDS011;8702;48.130;-1.696;2022-11-20T07:23:36;1.52;;;1.42;;
17173;SDS011;8702;48.130;-1.696;2022-11-20T07:26:03;2.05;;;1.40;;
17173;SDS011;8702;48.130;-1.696;2022-11-20T07:28:31;2.10;;;1.70;;
17173;SDS011;8702;48.130;-1.696;2022-11-20T07:30:59;1.63;;;1.52;;
17173;SDS011;8702;48.130;-1.696;2022-11-20T07:33:27;2.13;;;1.60;;
17173;SDS011;8702;48.130;-1.696;2022-11-20T07:35:54;1.63;;;1.52;;
17173;SDS011;8702;48.130;-1.696;2022-11-20T07:38:21;2.33;;;1.70;;
17173;SDS011;8702;48.130;-1.696;2022-11-20T07:40:48;2.60;;;1.60;;
17173;SDS011;8702;48.130;-1.696;2022-11-20T07:43:19;1.80;;;1.50;;
17173;SDS011;8702;48.130;-1.696;2022-11-20T07:45:46;3.93;;;1.77;;
17173;SDS011;8702;48.130;-1.696;2022-11-20T07:48:13;5.22;;;1.50;;
17173;SDS011;8702;48.130;-1.696;2022-11-20T07:50:41;4.68;;;1.67;;
17173;SDS011;8702;48.130;-1.696;2022-11-20T07:53:08;3.38;;;1.50;;
17173;SDS011;8702;48.130;-1.696;2022-11-20T07:55:35;6.07;;;1.60;;
17173;SDS011;8702;48.130;-1.696;2022-11-20T07:58:02;3.33;;;1.67;;
17173;SDS011;8702;48.130;-1.696;2022-11-20T08:00:29;5.13;;;1.80;;
17173;SDS011;8702;48.130;-1.696;2022-11-20T08:02:56;5.18;;;1.70;;
17173;SDS011;8702;48.130;-1.696;2022-11-20T08:05:23;5.32;;;1.75;;
17173;SDS011;8702;48.130;-1.696;2022-11-20T08:07:52;3.15;;;1.40;;
17173;SDS011;8702;48.130;-1.696;2022-11-20T08:10:21;4.13;;;1.70;;
17173;SDS011;8702;48.130;-1.696;2022-11-20T08:12:48;3.55;;;1.55;;
17173;SDS011;8702;48.130;-1.696;2022-11-20T08:15:33;3.80;;;1.60;;
17173;SDS011;8702;48.130;-1.696;2022-11-20T08:18:02;3.60;;;1.80;;
17173;SDS011;8702;48.130;-1.696;2022-11-20T08:20:30;4.90;;;1.98;;
17173;SDS011;8702;48.130;-1.696;2022-11-20T08:22:59;4.00;;;1.92;;
17173;SDS011;8702;48.130;-1.696;2022-11-20T08:25:26;5.68;;;1.95;;
17173;SDS011;8702;48.130;-1.696;2022-11-20T08:27:54;5.85;;;1.90;;
17173;SDS011;8702;48.130;-1.696;2022-11-20T08:30:23;6.95;;;2.50;;
17173;SDS011;8702;48.130;-1.696;2022-11-20T08:32:51;5.22;;;2.33;;
17173;SDS011;8702;48.130;-1.696;2022-11-20T08:35:18;7.65;;;2.30;;
17173;SDS011;8702;48.130;-1.696;2022-11-20T08:37:45;7.72;;;2.25;;
17173;SDS011;8702;48.130;-1.696;2022-11-20T08:40:14;9.75;;;2.47;;
17173;SDS011;8702;48.130;-1.696;2022-11-20T08:42:47;7.15;;;2.33;;
17173;SDS011;8702;48.130;-1.696;2022-11-20T08:45:16;9.05;;;2.30;;
17173;SDS011;8702;48.130;-1.696;2022-11-20T08:47:44;6.97;;;2.50;;
17173;SDS011;8702;48.130;-1.696;2022-11-20T08:50:11;11.68;;;2.75;;
17173;SDS011;8702;48.130;-1.696;2022-11-20T08:52:39;13.73;;;2.80;;
17173;SDS011;8702;48.130;-1.696;2022-11-20T08:55:07;14.55;;;3.10;;
17173;SDS011;8702;48.130;-1.696;2022-11-20T08:57:36;13.30;;;3.08;;
17173;SDS011;8702;48.130;-1.696;2022-11-20T09:00:04;10.23;;;2.78;;
17173;SDS011;8702;48.130;-1.696;2022-11-20T09:02:33;13.57;;;3.60;;
17173;SDS011;8702;48.130;-1.696;2022-11-20T09:05:00;14.73;;;3.27;;
17173;SDS011;8702;48.130;-1.696;2022-11-20T09:07:28;18.30;;;4.38;;
17173;SDS011;8702;48.130;-1.696;2022-11-20T09:09:55;23.15;;;4.07;;
17173;SDS011;8702;48.130;-1.696;2022-11-20T09:12:22;19.75;;;4.50;;
17173;SDS011;8702;48.130;-1.696;2022-11-20T09:14:50;20.33;;;4.63;;
17173;SDS011;8702;48.130;-1.696;2022-11-20T09:17:17;18.33;;;4.72;;
17173;SDS011;8702;48.130;-1.696;2022-11-20T09:19:45;19.20;;;4.68;;
17173;SDS011;8702;48.130;-1.696;2022-11-20T09:22:12;20.05;;;4.60;;
17173;SDS011;8702;48.130;-1.696;2022-11-20T09:24:39;22.53;;;4.83;;
17173;SDS011;8702;48.130;-1.696;2022-11-20T09:27:07;19.95;;;5.07;;
17173;SDS011;8702;48.130;-1.696;2022-11-20T09:29:34;22.88;;;5.43;;
17173;SDS011;8702;48.130;-1.696;2022-11-20T09:32:03;25.80;;;5.88;;
17173;SDS011;8702;48.130;-1.696;2022-11-20T09:34:31;25.67;;;6.10;;
17173;SDS011;8702;48.130;-1.696;2022-11-20T09:36:58;28.60;;;5.60;;
17173;SDS011;8702;48.130;-1.696;2022-11-20T09:39:25;24.02;;;5.95;;
17173;SDS011;8702;48.130;-1.696;2022-11-20T09:41:58;25.43;;;5.67;;
17173;SDS011;8702;48.130;-1.696;2022-11-20T09:47:30;28.13;;;6.53;;
17173;SDS011;8702;48.130;-1.696;2022-11-20T09:50:12;28.85;;;6.38;;
17173;SDS011;8702;48.130;-1.696;2022-11-20T09:52:53;32.90;;;6.90;;
17173;SDS011;8702;48.130;-1.696;2022-11-20T09:55:27;30.42;;;6.63;;
17173;SDS011;8702;48.130;-1.696;2022-11-20T09:57:56;28.38;;;6.82;;
17173;SDS011;8702;48.130;-1.696;2022-11-20T10:00:25;29.92;;;6.97;;
17173;SDS011;8702;48.130;-1.696;2022-11-20T10:02:58;29.77;;;6.93;;
17173;SDS011;8702;48.130;-1.696;2022-11-20T10:05:28;33.22;;;6.97;;
17173;SDS011;8702;48.130;-1.696;2022-11-20T10:08:07;26.33;;;6.13;;
17173;SDS011;8702;48.130;-1.696;2022-11-20T10:10:40;27.40;;;6.85;;
17173;SDS011;8702;48.130;-1.696;2022-11-20T10:13:14;33.40;;;7.55;;
17173;SDS011;8702;48.130;-1.696;2022-11-20T10:15:50;31.40;;;7.50;;
17173;SDS011;8702;48.130;-1.696;2022-11-20T10:18:27;31.40;;;6.78;;
17173;SDS011;8702;48.130;-1.696;2022-11-20T10:21:01;27.13;;;7.18;;
17173;SDS011;8702;48.130;-1.696;2022-11-20T10:23:39;27.97;;;6.77;;
17173;SDS011;8702;48.130;-1.696;2022-11-20T10:26:16;27.48;;;6.70;;
17173;SDS011;8702;48.130;-1.696;2022-11-20T10:28:56;29.90;;;7.17;;
17173;SDS011;8702;48.130;-1.696;2022-11-20T10:31:32;26.20;;;6.90;;
17173;SDS011;8702;48.130;-1.696;2022-11-20T10:34:03;29.02;;;6.68;;
17173;SDS011;8702;48.130;-1.696;2022-11-20T10:36:34;27.40;;;6.57;;
17173;SDS011;8702;48.130;-1.696;2022-11-20T10:39:07;33.22;;;7.03;;
17173;SDS011;8702;48.130;-1.696;2022-11-20T10:41:42;28.50;;;7.13;;
17173;SDS011;8702;48.130;-1.696;2022-11-20T10:44:15;24.77;;;6.95;;
17173;SDS011;8702;48.130;-1.696;2022-11-20T10:47:04;28.00;;;6.53;;
17173;SDS011;8702;48.130;-1.696;2022-11-20T10:49:33;28.20;;;6.45;;
17173;SDS011;8702;48.130;-1.696;2022-11-20T10:52:03;26.92;;;6.10;;
17173;SDS011;8702;48.130;-1.696;2022-11-20T10:54:35;26.67;;;6.18;;
17173;SDS011;8702;48.130;-1.696;2022-11-20T10:57:10;28.20;;;6.68;;
17173;SDS011;8702;48.130;-1.696;2022-11-20T10:59:51;28.90;;;6.38;;
17173;SDS011;8702;48.130;-1.696;2022-11-20T11:02:31;23.15;;;5.80;;
17173;SDS011;8702;48.130;-1.696;2022-11-20T11:05:01;27.65;;;6.47;;
17173;SDS011;8702;48.130;-1.696;2022-11-20T11:07:36;32.00;;;5.95;;
17173;SDS011;8702;48.130;-1.696;2022-11-20T11:10:12;30.80;;;6.40;;
17173;SDS011;8702;48.130;-1.696;2022-11-20T11:12:43;30.00;;;6.40;;
17173;SDS011;8702;48.130;-1.696;2022-11-20T11:15:12;23.80;;;5.93;;
17173;SDS011;8702;48.130;-1.696;2022-11-20T11:17:51;26.77;;;6.85;;
17173;SDS011;8702;48.130;-1.696;2022-11-20T11:20:20;30.83;;;6.78;;
17173;SDS011;8702;48.130;-1.696;2022-11-20T11:22:49;24.75;;;6.50;;
17173;SDS011;8702;48.130;-1.696;2022-11-20T11:25:25;29.13;;;6.72;;
17173;SDS011;8702;48.130;-1.696;2022-11-20T11:27:59;22.50;;;6.13;;
17173;SDS011;8702;48.130;-1.696;2022-11-20T11:30:27;25.35;;;6.88;;
17173;SDS011;8702;48.130;-1.696;2022-11-20T11:33:03;26.83;;;6.68;;
17173;SDS011;8702;48.130;-1.696;2022-11-20T11:35:33;29.15;;;6.20;;
17173;SDS011;8702;48.130;-1.696;2022-11-20T11:38:11;25.50;;;6.13;;
17173;SDS011;8702;48.130;-1.696;2022-11-20T11:40:43;22.20;;;6.20;;
17173;SDS011;8702;48.130;-1.696;2022-11-20T11:43:17;28.85;;;6.40;;
17173;SDS011;8702;48.130;-1.696;2022-11-20T11:45:59;27.27;;;6.68;;
17173;SDS011;8702;48.130;-1.696;2022-11-20T11:48:27;28.35;;;6.95;;
17173;SDS011;8702;48.130;-1.696;2022-11-20T11:50:55;22.45;;;6.03;;
17173;SDS011;8702;48.130;-1.696;2022-11-20T11:53:23;23.30;;;6.10;;
17173;SDS011;8702;48.130;-1.696;2022-11-20T11:55:55;21.25;;;5.55;;
17173;SDS011;8702;48.130;-1.696;2022-11-20T11:58:29;17.08;;;4.40;;
17173;SDS011;8702;48.130;-1.696;2022-11-20T12:01:01;19.80;;;4.32;;
17173;SDS011;8702;48.130;-1.696;2022-11-20T12:03:34;17.88;;;4.32;;
17173;SDS011;8702;48.130;-1.696;2022-11-20T12:06:05;19.20;;;4.93;;
17173;SDS011;8702;48.130;-1.696;2022-11-20T12:08:37;18.45;;;4.50;;
17173;SDS011;8702;48.130;-1.696;2022-11-20T12:11:11;17.77;;;5.30;;
17173;SDS011;8702;48.130;-1.696;2022-11-20T12:13:40;19.97;;;4.80;;
17173;SDS011;8702;48.130;-1.696;2022-11-20T12:16:11;20.13;;;4.85;;
17173;SDS011;8702;48.130;-1.696;2022-11-20T12:18:39;25.00;;;5.80;;
17173;SDS011;8702;48.130;-1.696;2022-11-20T12:21:12;23.05;;;5.13;;
17173;SDS011;8702;48.130;-1.696;2022-11-20T12:23:48;22.50;;;5.82;;
17173;SDS011;8702;48.130;-1.696;2022-11-20T12:26:19;21.83;;;5.50;;
17173;SDS011;8702;48.130;-1.696;2022-11-20T12:28:54;22.05;;;5.47;;
17173;SDS011;8702;48.130;-1.696;2022-11-20T12:34:21;21.58;;;5.82;;
17173;SDS011;8702;48.130;-1.696;2022-11-20T12:36:53;19.67;;;5.20;;
17173;SDS011;8702;48.130;-1.696;2022-11-20T12:39:30;20.63;;;5.47;;
17173;SDS011;8702;48.130;-1.696;2022-11-20T12:42:13;24.23;;;5.68;;
17173;SDS011;8702;48.130;-1.696;2022-11-20T12:45:12;19.60;;;5.45;;
17173;SDS011;8702;48.130;-1.696;2022-11-20T12:48:07;25.88;;;5.38;;
17173;SDS011;8702;48.130;-1.696;2022-11-20T12:50:44;23.48;;;5.68;;
17173;SDS011;8702;48.130;-1.696;2022-11-20T12:53:21;21.25;;;5.60;;
17173;SDS011;8702;48.130;-1.696;2022-11-20T12:55:56;26.48;;;5.80;;
17173;SDS011;8702;48.130;-1.696;2022-11-20T12:58:28;20.30;;;5.38;;
17173;SDS011;8702;48.130;-1.696;2022-11-20T13:00:58;23.30;;;5.22;;
17173;SDS011;8702;48.130;-1.696;2022-11-20T13:03:39;23.52;;;5.70;;
17173;SDS011;8702;48.130;-1.696;2022-11-20T13:06:11;19.77;;;5.00;;
17173;SDS011;8702;48.130;-1.696;2022-11-20T13:08:45;21.45;;;5.55;;
17173;SDS011;8702;48.130;-1.696;2022-11-20T13:11:17;21.67;;;5.18;;
17173;SDS011;8702;48.130;-1.696;2022-11-20T13:13:55;23.67;;;5.95;;
17173;SDS011;8702;48.130;-1.696;2022-11-20T13:16:29;23.15;;;6.18;;
17173;SDS011;8702;48.130;-1.696;2022-11-20T13:19:02;21.23;;;5.22;;
17173;SDS011;8702;48.130;-1.696;2022-11-20T13:21:35;23.98;;;5.50;;
17173;SDS011;8702;48.130;-1.696;2022-11-20T13:24:07;20.98;;;5.40;;
17173;SDS011;8702;48.130;-1.696;2022-11-20T13:26:59;19.75;;;4.85;;
17173;SDS011;8702;48.130;-1.696;2022-11-20T13:29:27;21.92;;;4.97;;
17173;SDS011;8702;48.130;-1.696;2022-11-20T13:32:01;19.55;;;4.82;;
17173;SDS011;8702;48.130;-1.696;2022-11-20T13:34:30;17.38;;;5.25;;
17173;SDS011;8702;48.130;-1.696;2022-11-20T13:36:58;19.95;;;4.65;;
17173;SDS011;8702;48.130;-1.696;2022-11-20T13:39:30;18.10;;;4.50;;
17173;SDS011;8702;48.130;-1.696;2022-11-20T13:41:59;18.02;;;5.10;;
17173;SDS011;8702;48.130;-1.696;2022-11-20T13:44:29;17.35;;;4.18;;
17173;SDS011;8702;48.130;-1.696;2022-11-20T13:47:03;16.48;;;4.40;;
17173;SDS011;8702;48.130;-1.696;2022-11-20T13:49:31;18.50;;;4.97;;
17173;SDS011;8702;48.130;-1.696;2022-11-20T13:52:07;20.65;;;4.85;;
17173;SDS011;8702;48.130;-1.696;2022-11-20T13:55:05;22.33;;;4.97;;
17173;SDS011;8702;48.130;-1.696;2022-11-20T14:00:29;20.92;;;5.45;;
17173;SDS011;8702;48.130;-1.696;2022-11-20T14:03:07;17.92;;;4.68;;
17173;SDS011;8702;48.130;-1.696;2022-11-20T14:05:40;19.60;;;5.03;;
17173;SDS011;8702;48.130;-1.696;2022-11-20T14:08:18;20.45;;;5.03;;
17173;SDS011;8702;48.130;-1.696;2022-11-20T14:10:52;20.25;;;5.03;;
17173;SDS011;8702;48.130;-1.696;2022-11-20T14:13:29;18.23;;;4.70;;
17173;SDS011;8702;48.130;-1.696;2022-11-20T14:15:56;20.63;;;5.47;;
17173;SDS011;8702;48.130;-1.696;2022-11-20T14:18:25;21.10;;;5.32;;
17173;SDS011;8702;48.130;-1.696;2022-11-20T14:20:52;17.15;;;4.40;;
17173;SDS011;8702;48.130;-1.696;2022-11-20T14:23:26;20.27;;;5.23;;
17173;SDS011;8702;48.130;-1.696;2022-11-20T14:25:55;16.57;;;4.43;;
17173;SDS011;8702;48.130;-1.696;2022-11-20T14:28:24;16.45;;;4.63;;
17173;SDS011;8702;48.130;-1.696;2022-11-20T14:30:52;18.08;;;5.05;;
17173;SDS011;8702;48.130;-1.696;2022-11-20T14:33:20;20.98;;;5.03;;
17173;SDS011;8702;48.130;-1.696;2022-11-20T14:35:50;16.10;;;4.22;;
17173;SDS011;8702;48.130;-1.696;2022-11-20T14:38:19;16.60;;;4.57;;
17173;SDS011;8702;48.130;-1.696;2022-11-20T14:40:48;18.77;;;4.53;;
17173;SDS011;8702;48.130;-1.696;2022-11-20T14:43:18;18.90;;;5.20;;
17173;SDS011;8702;48.130;-1.696;2022-11-20T14:45:46;18.17;;;4.78;;
17173;SDS011;8702;48.130;-1.696;2022-11-20T14:48:15;19.45;;;4.53;;
17173;SDS011;8702;48.130;-1.696;2022-11-20T14:50:43;19.45;;;5.20;;
17173;SDS011;8702;48.130;-1.696;2022-11-20T14:53:10;21.25;;;4.78;;
17173;SDS011;8702;48.130;-1.696;2022-11-20T14:55:38;23.20;;;5.67;;
17173;SDS011;8702;48.130;-1.696;2022-11-20T14:58:05;17.23;;;4.40;;
17173;SDS011;8702;48.130;-1.696;2022-11-20T15:00:34;17.90;;;4.97;;
17173;SDS011;8702;48.130;-1.696;2022-11-20T15:03:02;20.37;;;5.17;;
17173;SDS011;8702;48.130;-1.696;2022-11-20T15:05:43;21.13;;;4.95;;
17173;SDS011;8702;48.130;-1.696;2022-11-20T15:08:11;15.10;;;4.28;;